createdAt,value
2023-03-28T00:01:31.167Z,1.70
2023-03-28T00:03:57.969Z,1.60
2023-03-28T00:06:27.533Z,1.50
2023-03-28T00:08:55.936Z,1.50
2023-03-28T00:11:22.729Z,1.50
2023-03-28T00:13:57.809Z,1.50
2023-03-28T00:19:05.879Z,1.40
2023-03-28T00:21:34.481Z,1.50
2023-03-28T00:24:03.119Z,1.30
2023-03-28T00:26:32.413Z,1.30
2023-03-28T00:29:01.443Z,1.20
2023-03-28T00:31:29.513Z,1.20
2023-03-28T00:33:56.744Z,1.10
2023-03-28T00:36:26.685Z,1.00
2023-03-28T00:38:54.056Z,1.20
2023-03-28T00:41:22.067Z,1.00
2023-03-28T00:43:53.624Z,1.00
2023-03-28T00:46:26.461Z,1.10
2023-03-28T00:49:00.639Z,1.00
2023-03-28T00:51:30.101Z,0.90
2023-03-28T00:54:00.962Z,1.00
2023-03-28T00:56:29.766Z,0.90
2023-03-28T00:58:56.766Z,0.80
2023-03-28T01:01:23.775Z,0.80
2023-03-28T01:03:56.152Z,0.80
2023-03-28T01:06:24.621Z,0.80
2023-03-28T01:08:52.451Z,0.90
2023-03-28T01:11:21.460Z,0.80
2023-03-28T01:13:50.126Z,0.70
2023-03-28T01:16:18.519Z,0.80
2023-03-28T01:18:51.686Z,0.80
2023-03-28T01:21:24.684Z,0.80
2023-03-28T01:24:12.420Z,0.80
2023-03-28T01:26:44.027Z,0.70
2023-03-28T01:29:10.863Z,0.80
2023-03-28T01:31:48.275Z,0.80
2023-03-28T01:34:57.354Z,0.70
2023-03-28T01:37:32.611Z,0.50
2023-03-28T01:40:06.197Z,0.50
2023-03-28T01:42:36.233Z,0.50
2023-03-28T01:45:15.410Z,0.50
2023-03-28T01:47:48.900Z,0.50
2023-03-28T01:50:18.948Z,0.60
2023-03-28T01:52:52.049Z,0.50
2023-03-28T01:55:31.797Z,0.60
2023-03-28T01:58:16.050Z,0.50
2023-03-28T02:00:54.924Z,0.50
2023-03-28T02:03:31.134Z,0.50
2023-03-28T02:06:02.756Z,0.40
2023-03-28T02:08:33.225Z,0.40
2023-03-28T02:11:27.484Z,0.40
2023-03-28T02:14:11.916Z,0.40
2023-03-28T02:17:01.910Z,0.40
2023-03-28T02:20:08.908Z,0.40
2023-03-28T02:22:56.717Z,0.40
2023-03-28T02:25:46.137Z,0.20
2023-03-28T02:28:24.616Z,0.30
2023-03-28T02:31:08.178Z,0.40
2023-03-28T02:33:39.640Z,0.50
2023-03-28T02:36:13.630Z,0.50
2023-03-28T02:38:40.505Z,0.30
2023-03-28T02:41:16.905Z,0.20
2023-03-28T02:43:50.869Z,0.10
2023-03-28T02:46:30.478Z,-0.10
2023-03-28T02:49:09.728Z,-0.10
2023-03-28T02:51:36.877Z,-0.20
2023-03-28T02:54:22.481Z,-0.20
2023-03-28T02:57:16.604Z,-0.20
2023-03-28T02:59:52.777Z,-0.10
2023-03-28T03:02:21.455Z,0.00
2023-03-28T03:04:50.418Z,0.30
2023-03-28T03:07:18.881Z,0.30
2023-03-28T03:09:46.365Z,0.30
2023-03-28T03:12:13.866Z,0.40
2023-03-28T03:14:40.636Z,0.40
2023-03-28T03:17:33.398Z,0.40
2023-03-28T03:20:06.871Z,0.30
2023-03-28T03:22:37.692Z,0.30
2023-03-28T03:25:07.954Z,0.30
2023-03-28T03:27:44.823Z,0.40
2023-03-28T03:30:12.428Z,0.30
2023-03-28T03:33:00.741Z,0.40
2023-03-28T03:35:33.266Z,0.20
2023-03-28T03:38:04.020Z,0.30
2023-03-28T03:40:30.966Z,0.20
2023-03-28T03:42:58.671Z,0.20
2023-03-28T03:45:25.738Z,0.20
2023-03-28T03:47:52.680Z,0.20
2023-03-28T03:50:20.542Z,0.20
2023-03-28T03:52:47.452Z,0.20
2023-03-28T03:55:14.693Z,0.00
2023-03-28T03:57:43.205Z,0.00
2023-03-28T04:00:12.187Z,-0.20
2023-03-28T04:02:48.601Z,-0.20
2023-03-28T04:05:21.647Z,-0.20
2023-03-28T04:08:05.880Z,0.00
2023-03-28T04:10:36.588Z,0.00
2023-03-28T04:13:03.490Z,0.00
2023-03-28T04:15:32.736Z,-0.10
2023-03-28T04:18:20.682Z,-0.10
2023-03-28T04:20:53.823Z,-0.10
2023-03-28T04:23:38.748Z,0.10
2023-03-28T04:26:08.721Z,0.30
2023-03-28T04:28:55.007Z,0.50
2023-03-28T04:31:22.994Z,0.60
2023-03-28T04:34:08.921Z,0.60
2023-03-28T04:36:43.884Z,0.30
2023-03-28T04:39:11.425Z,0.40
2023-03-28T04:41:56.814Z,0.30
2023-03-28T04:44:32.725Z,0.30
2023-03-28T04:47:03.505Z,0.20
2023-03-28T04:49:31.132Z,0.20
2023-03-28T04:51:57.969Z,0.40
2023-03-28T04:54:24.810Z,0.30
2023-03-28T04:57:11.821Z,0.10
2023-03-28T04:59:48.348Z,0.10
2023-03-28T05:02:35.283Z,0.00
2023-03-28T05:05:05.168Z,0.00
2023-03-28T05:07:32.482Z,-0.10
2023-03-28T05:09:59.602Z,-0.20
2023-03-28T05:12:33.586Z,-0.30
2023-03-28T05:15:03.979Z,-0.30
2023-03-28T05:17:31.855Z,-0.30
2023-03-28T05:20:19.620Z,-0.10
2023-03-28T05:22:50.916Z,-0.10
2023-03-28T05:25:18.064Z,-0.10
2023-03-28T05:27:45.418Z,0.00
2023-03-28T05:30:12.841Z,-0.10
2023-03-28T05:32:39.790Z,0.00
2023-03-28T05:35:11.391Z,-0.10
2023-03-28T05:37:40.454Z,0.10
2023-03-28T05:40:11.024Z,0.10
2023-03-28T05:42:40.660Z,0.10
2023-03-28T05:45:13.633Z,0.20
2023-03-28T05:47:59.433Z,0.20
2023-03-28T05:50:26.404Z,0.20
2023-03-28T05:53:00.308Z,0.50
2023-03-28T05:55:27.168Z,0.80
2023-03-28T05:57:54.037Z,0.90
2023-03-28T06:00:24.868Z,0.70
2023-03-28T06:02:52.841Z,0.70
2023-03-28T06:05:29.503Z,0.60
2023-03-28T06:07:56.786Z,0.50
2023-03-28T06:10:25.617Z,0.70
2023-03-28T06:13:05.761Z,0.70
2023-03-28T06:15:33.208Z,0.60
2023-03-28T06:18:00.349Z,0.60
2023-03-28T06:20:27.449Z,0.60
2023-03-28T06:22:55.443Z,0.80
2023-03-28T06:25:22.460Z,0.80
2023-03-28T06:27:49.510Z,0.90
2023-03-28T06:30:17.022Z,0.90
2023-03-28T06:32:47.888Z,1.10
2023-03-28T06:35:15.499Z,1.20
2023-03-28T06:37:42.436Z,1.40
2023-03-28T06:40:10.332Z,1.60
2023-03-28T06:42:38.312Z,1.80
2023-03-28T06:45:19.969Z,2.00
2023-03-28T06:47:58.427Z,2.30
2023-03-28T06:50:50.440Z,2.50
2023-03-28T06:53:20.280Z,2.70
2023-03-28T06:55:49.500Z,2.90
2023-03-28T06:58:16.807Z,3.20
2023-03-28T07:00:53.125Z,3.30
2023-03-28T07:03:22.776Z,3.50
2023-03-28T07:05:49.664Z,3.60
2023-03-28T07:08:16.558Z,3.60
2023-03-28T07:10:43.408Z,3.70
2023-03-28T07:13:11.376Z,3.90
2023-03-28T07:15:47.685Z,4.00
2023-03-28T07:18:14.826Z,4.20
2023-03-28T07:20:43.040Z,4.30
2023-03-28T07:23:12.384Z,4.30
2023-03-28T07:25:39.624Z,4.30
2023-03-28T07:28:06.617Z,4.30
2023-03-28T07:30:34.008Z,4.50
2023-03-28T07:33:12.832Z,4.70
2023-03-28T07:35:44.406Z,4.80
2023-03-28T07:38:13.934Z,4.90
2023-03-28T07:40:51.642Z,5.10
2023-03-28T07:43:18.639Z,5.10
2023-03-28T07:45:47.676Z,5.20
2023-03-28T07:48:14.634Z,5.50
2023-03-28T07:50:42.857Z,5.30
2023-03-28T07:53:13.816Z,5.50
2023-03-28T07:55:54.418Z,5.90
2023-03-28T07:58:26.061Z,6.80
2023-03-28T08:00:56.422Z,7.40
2023-03-28T08:03:46.403Z,8.30
2023-03-28T08:06:30.831Z,9.00
2023-03-28T08:09:02.787Z,9.70
2023-03-28T08:11:35.230Z,10.30
2023-03-28T08:14:02.409Z,10.50
2023-03-28T08:16:30.741Z,10.20
2023-03-28T08:19:10.156Z,10.60
2023-03-28T08:21:47.593Z,11.20
2023-03-28T08:24:22.265Z,11.50
2023-03-28T08:26:59.922Z,11.60
2023-03-28T08:29:28.040Z,11.30
2023-03-28T08:31:55.212Z,11.60
2023-03-28T08:34:22.242Z,11.20
2023-03-28T08:36:49.181Z,10.70
2023-03-28T08:39:26.213Z,10.40
2023-03-28T08:42:11.949Z,10.70
2023-03-28T08:44:38.909Z,10.90
2023-03-28T08:47:18.521Z,12.00
2023-03-28T08:49:47.041Z,12.30
2023-03-28T08:52:17.403Z,12.50
2023-03-28T08:55:07.101Z,13.00
2023-03-28T08:57:34.981Z,13.70
2023-03-28T09:00:22.593Z,14.80
2023-03-28T09:02:51.826Z,15.10
2023-03-28T09:05:25.411Z,12.80
2023-03-28T09:08:06.231Z,12.80
2023-03-28T09:10:33.416Z,14.00
2023-03-28T09:13:34.465Z,14.50
2023-03-28T09:16:10.206Z,13.70
2023-03-28T09:18:42.538Z,15.00
2023-03-28T09:21:18.688Z,13.80
2023-03-28T09:24:05.391Z,12.40
2023-03-28T09:26:41.876Z,12.20
2023-03-28T09:29:17.846Z,12.30
2023-03-28T09:31:45.402Z,13.60
2023-03-28T09:34:23.033Z,14.90
2023-03-28T09:36:54.835Z,15.10
2023-03-28T09:39:32.725Z,15.50
2023-03-28T09:42:21.789Z,14.70
2023-03-28T09:44:57.589Z,13.20
2023-03-28T09:47:53.615Z,12.90
2023-03-28T09:50:24.757Z,11.50
2023-03-28T09:52:56.654Z,11.30
2023-03-28T09:55:24.657Z,10.80
2023-03-28T09:58:04.802Z,12.40
2023-03-28T10:00:40.590Z,12.60
2023-03-28T10:03:34.893Z,13.70
2023-03-28T10:06:31.799Z,14.20
2023-03-28T10:09:09.679Z,15.40
2023-03-28T10:12:08.010Z,14.80
2023-03-28T10:14:38.353Z,13.90
2023-03-28T10:17:20.089Z,12.70
2023-03-28T10:19:48.913Z,14.40
2023-03-28T10:22:25.144Z,13.80
2023-03-28T10:24:53.667Z,12.40
2023-03-28T10:27:24.022Z,13.00
2023-03-28T10:29:56.450Z,14.00
2023-03-28T10:32:29.230Z,14.60
2023-03-28T10:35:30.944Z,17.20
2023-03-28T10:38:18.863Z,17.60
2023-03-28T10:41:10.841Z,16.10
2023-03-28T10:44:17.637Z,15.80
2023-03-28T10:46:51.335Z,15.30
2023-03-28T10:49:26.276Z,13.50
2023-03-28T10:52:00.875Z,12.30
2023-03-28T10:54:31.494Z,11.60
2023-03-28T10:57:04.911Z,11.30
2023-03-28T10:59:47.982Z,11.60
2023-03-28T11:02:22.788Z,12.40
2023-03-28T11:05:01.916Z,13.30
2023-03-28T11:07:31.028Z,13.50
2023-03-28T11:10:24.193Z,12.70
2023-03-28T11:13:17.324Z,11.80
2023-03-28T11:15:56.334Z,12.30
2023-03-28T11:18:43.291Z,13.60
2023-03-28T11:21:29.568Z,14.20
2023-03-28T11:23:56.477Z,14.30
2023-03-28T11:26:42.078Z,14.80
2023-03-28T11:29:49.334Z,15.10
2023-03-28T11:32:27.185Z,15.00
2023-03-28T11:35:12.658Z,14.60
2023-03-28T11:37:46.045Z,16.30
2023-03-28T11:40:20.259Z,18.60
2023-03-28T11:42:57.785Z,18.80
2023-03-28T11:45:52.574Z,17.60
2023-03-28T11:48:26.280Z,17.00
2023-03-28T11:50:57.700Z,18.20
2023-03-28T11:53:47.422Z,19.40
2023-03-28T11:56:17.653Z,19.20
2023-03-28T11:59:32.285Z,18.30
2023-03-28T12:02:12.646Z,18.50
2023-03-28T12:04:45.126Z,18.50
2023-03-28T12:07:16.210Z,18.50
2023-03-28T12:10:09.534Z,15.30
2023-03-28T12:12:57.360Z,14.70
2023-03-28T12:15:34.153Z,15.40
2023-03-28T12:18:16.845Z,17.20
2023-03-28T12:21:07.683Z,18.50
2023-03-28T12:24:05.012Z,18.80
2023-03-28T12:26:42.684Z,18.70
2023-03-28T12:29:31.595Z,18.00
2023-03-28T12:32:18.828Z,17.40
2023-03-28T12:34:53.802Z,16.70
2023-03-28T12:37:56.489Z,17.40
2023-03-28T12:40:34.167Z,17.30
2023-03-28T12:43:01.367Z,18.80
2023-03-28T12:45:31.108Z,20.40
2023-03-28T12:48:03.442Z,20.70
2023-03-28T12:50:38.843Z,19.80
2023-03-28T12:53:08.618Z,21.10
2023-03-28T12:55:49.212Z,21.40
2023-03-28T12:58:33.805Z,23.20
2023-03-28T13:01:09.456Z,22.60
2023-03-28T13:03:43.402Z,18.90
2023-03-28T13:06:19.212Z,19.20
2023-03-28T13:09:05.168Z,19.20
2023-03-28T13:11:50.767Z,20.40
2023-03-28T13:14:36.686Z,18.60
2023-03-28T13:17:17.598Z,19.20
2023-03-28T13:19:44.409Z,18.80
2023-03-28T13:22:30.148Z,18.10
2023-03-28T13:25:17.007Z,18.80
2023-03-28T13:27:43.959Z,18.90
2023-03-28T13:30:18.343Z,18.70
2023-03-28T13:32:52.552Z,17.90
2023-03-28T13:35:38.367Z,17.30
2023-03-28T13:38:16.047Z,17.10
2023-03-28T13:40:42.818Z,16.90
2023-03-28T13:43:22.809Z,17.60
2023-03-28T13:45:51.702Z,18.60
2023-03-28T13:48:18.691Z,21.20
2023-03-28T13:50:46.041Z,21.50
2023-03-28T13:53:12.930Z,20.00
2023-03-28T13:55:39.762Z,20.10
2023-03-28T13:58:06.575Z,21.70
2023-03-28T14:00:33.413Z,19.40
2023-03-28T14:03:02.201Z,19.70
2023-03-28T14:05:32.897Z,20.90
2023-03-28T14:08:19.838Z,19.00
2023-03-28T14:10:47.320Z,18.20
2023-03-28T14:13:16.092Z,17.80
2023-03-28T14:15:44.206Z,18.00
2023-03-28T14:18:31.903Z,17.30
2023-03-28T14:21:00.517Z,17.30
2023-03-28T14:23:37.705Z,16.50
2023-03-28T14:26:16.094Z,14.20
2023-03-28T14:28:44.176Z,14.30
2023-03-28T14:31:27.904Z,14.70
2023-03-28T14:33:58.398Z,14.90
2023-03-28T14:36:25.675Z,14.70
2023-03-28T14:38:52.471Z,14.70
2023-03-28T14:41:21.696Z,15.00
2023-03-28T14:43:52.479Z,15.20
2023-03-28T14:46:22.279Z,16.40
2023-03-28T14:48:53.621Z,17.40
2023-03-28T14:51:21.534Z,19.10
2023-03-28T14:53:48.455Z,16.90
2023-03-28T14:56:19.319Z,15.80
2023-03-28T14:58:47.171Z,16.60
2023-03-28T15:01:22.521Z,15.60
2023-03-28T15:04:00.005Z,16.40
2023-03-28T15:06:29.375Z,18.10
2023-03-28T15:08:58.113Z,18.80
2023-03-28T15:11:29.120Z,18.80
2023-03-28T15:14:06.282Z,20.70
2023-03-28T15:16:36.988Z,20.10
2023-03-28T15:19:09.324Z,20.50
2023-03-28T15:21:38.429Z,21.40
2023-03-28T15:24:06.172Z,22.70
2023-03-28T15:26:38.274Z,24.00
2023-03-28T15:29:05.841Z,24.50
2023-03-28T15:31:33.077Z,24.70
2023-03-28T15:34:00.149Z,25.20
2023-03-28T15:36:34.791Z,25.90
2023-03-28T15:39:10.425Z,26.20
2023-03-28T15:41:42.592Z,25.50
2023-03-28T15:44:21.689Z,26.70
2023-03-28T15:46:48.508Z,26.10
2023-03-28T15:49:15.752Z,24.60
2023-03-28T15:51:54.890Z,22.50
2023-03-28T15:54:31.446Z,23.30
2023-03-28T15:57:00.527Z,24.30
2023-03-28T15:59:42.189Z,24.20
2023-03-28T16:02:24.063Z,23.80
2023-03-28T16:05:10.166Z,21.20
2023-03-28T16:07:46.246Z,20.50
2023-03-28T16:10:14.220Z,22.20
2023-03-28T16:13:01.212Z,23.40
2023-03-28T16:15:46.879Z,22.20
2023-03-28T16:18:25.842Z,22.00
2023-03-28T16:20:56.778Z,24.00
2023-03-28T16:23:23.832Z,23.90
2023-03-28T16:25:50.705Z,23.50
2023-03-28T16:28:18.444Z,22.60
2023-03-28T16:30:45.878Z,18.00
2023-03-28T16:33:13.394Z,16.10
2023-03-28T16:35:40.429Z,14.70
2023-03-28T16:38:07.698Z,13.60
2023-03-28T16:40:34.646Z,12.70
2023-03-28T16:43:01.557Z,12.20
2023-03-28T16:45:29.776Z,11.60
2023-03-28T16:47:56.771Z,11.10
2023-03-28T16:50:24.805Z,11.00
2023-03-28T16:52:51.649Z,11.00
2023-03-28T16:55:18.865Z,10.70
2023-03-28T16:57:46.421Z,10.70
2023-03-28T17:00:17.789Z,10.60
2023-03-28T17:02:46.939Z,10.70
2023-03-28T17:05:14.591Z,10.30
2023-03-28T17:07:41.552Z,10.20
2023-03-28T17:10:08.667Z,10.20
2023-03-28T17:12:35.727Z,10.00
2023-03-28T17:15:02.495Z,9.70
2023-03-28T17:17:29.317Z,9.60
2023-03-28T17:19:56.119Z,9.50
2023-03-28T17:22:22.920Z,9.50
2023-03-28T17:24:49.837Z,9.40
2023-03-28T17:27:16.768Z,9.30
2023-03-28T17:29:43.530Z,9.30
2023-03-28T17:32:10.263Z,9.20
2023-03-28T17:34:37.310Z,9.00
2023-03-28T17:37:04.292Z,8.90
2023-03-28T17:39:31.295Z,8.80
2023-03-28T17:41:58.161Z,8.60
2023-03-28T17:44:24.958Z,8.70
2023-03-28T17:46:51.947Z,8.50
2023-03-28T17:49:19.339Z,8.50
2023-03-28T17:51:46.247Z,8.40
2023-03-28T17:54:13.088Z,8.40
2023-03-28T17:56:40.020Z,8.30
2023-03-28T17:59:07.401Z,8.40
2023-03-28T18:01:34.281Z,8.30
2023-03-28T18:04:01.278Z,8.40
2023-03-28T18:06:46.847Z,8.50
2023-03-28T18:09:13.915Z,8.60
2023-03-28T18:11:41.378Z,8.60
2023-03-28T18:14:08.719Z,8.40
2023-03-28T18:16:36.156Z,8.50
2023-03-28T18:19:03.407Z,8.40
2023-03-28T18:21:30.537Z,8.30
2023-03-28T18:23:57.251Z,8.10
2023-03-28T18:26:24.194Z,8.10
2023-03-28T18:28:51.035Z,8.10
2023-03-28T18:31:19.582Z,8.10
2023-03-28T18:33:46.400Z,8.00
2023-03-28T18:36:13.454Z,8.00
2023-03-28T18:38:42.663Z,7.90
2023-03-28T18:41:09.908Z,7.80
2023-03-28T18:43:37.536Z,7.90
2023-03-28T18:46:05.170Z,7.80
2023-03-28T18:48:32.225Z,7.70
2023-03-28T18:50:59.023Z,7.80
2023-03-28T18:53:25.915Z,7.80
2023-03-28T18:55:53.107Z,7.70
2023-03-28T18:58:20.414Z,7.70
2023-03-28T19:00:47.437Z,7.60
2023-03-28T19:03:17.634Z,7.50
2023-03-28T19:05:44.497Z,7.70
2023-03-28T19:08:11.967Z,7.50
2023-03-28T19:10:44.483Z,7.50
2023-03-28T19:13:11.403Z,7.60
2023-03-28T19:15:38.254Z,7.50
2023-03-28T19:18:06.860Z,7.60
2023-03-28T19:20:33.682Z,7.50
2023-03-28T19:23:00.425Z,7.50
2023-03-28T19:25:27.226Z,7.40
2023-03-28T19:27:54.300Z,7.30
2023-03-28T19:30:21.334Z,7.40
2023-03-28T19:32:48.261Z,7.20
2023-03-28T19:35:15.113Z,7.60
2023-03-28T19:37:41.914Z,7.70
2023-03-28T19:40:09.412Z,7.60
2023-03-28T19:42:36.745Z,7.40
2023-03-28T19:45:03.941Z,7.50
2023-03-28T19:47:30.689Z,7.40
2023-03-28T19:49:58.321Z,7.40
2023-03-28T19:52:25.417Z,7.60
2023-03-28T19:54:52.317Z,7.50
2023-03-28T19:57:19.132Z,7.40
2023-03-28T19:59:46.138Z,7.40
2023-03-28T20:02:12.833Z,7.20
2023-03-28T20:04:39.626Z,7.10
2023-03-28T20:07:06.695Z,7.20
2023-03-28T20:09:35.426Z,7.20
2023-03-28T20:12:02.514Z,7.20
2023-03-28T20:14:29.235Z,7.30
2023-03-28T20:16:56.324Z,7.20
2023-03-28T20:19:23.196Z,7.20
2023-03-28T20:21:49.973Z,7.40
2023-03-28T20:24:18.144Z,7.50
2023-03-28T20:26:45.044Z,7.50
2023-03-28T20:29:13.731Z,7.50
2023-03-28T20:31:40.868Z,7.40
2023-03-28T20:34:07.740Z,7.40
2023-03-28T20:36:34.589Z,7.20
2023-03-28T20:39:02.018Z,7.30
2023-03-28T20:41:29.884Z,7.30
2023-03-28T20:44:03.574Z,7.10
2023-03-28T20:46:32.439Z,7.40
2023-03-28T20:49:00.277Z,7.40
2023-03-28T20:51:29.465Z,7.30
2023-03-28T20:54:00.251Z,7.40
2023-03-28T20:56:28.101Z,7.40
2023-03-28T20:58:58.017Z,7.30
2023-03-28T21:01:27.971Z,7.40
2023-03-28T21:03:57.942Z,7.50
2023-03-28T21:06:33.597Z,7.60
2023-03-28T21:09:01.891Z,7.70
2023-03-28T21:11:29.702Z,7.90
2023-03-28T21:13:57.481Z,8.00
2023-03-28T21:16:24.990Z,8.10
2023-03-28T21:18:52.029Z,8.00
2023-03-28T21:21:19.529Z,8.10
2023-03-28T21:23:46.835Z,8.00
2023-03-28T21:26:14.992Z,7.80
2023-03-28T21:28:41.906Z,7.80
2023-03-28T21:31:20.858Z,7.70
2023-03-28T21:33:48.536Z,7.50
2023-03-28T21:36:16.569Z,7.50
2023-03-28T21:38:44.424Z,7.40
2023-03-28T21:41:11.600Z,7.30
2023-03-28T21:43:39.062Z,7.30
2023-03-28T21:46:07.103Z,7.40
2023-03-28T21:48:34.594Z,7.30
2023-03-28T21:51:01.919Z,7.40
2023-03-28T21:53:32.758Z,7.40
2023-03-28T21:55:59.714Z,7.70
2023-03-28T21:58:28.405Z,7.30
2023-03-28T22:00:55.551Z,7.30
2023-03-28T22:03:22.452Z,7.40
2023-03-28T22:05:51.106Z,7.50
2023-03-28T22:08:19.288Z,7.50
2023-03-28T22:10:47.691Z,7.20
2023-03-28T22:13:14.649Z,7.20
2023-03-28T22:15:41.632Z,7.20
2023-03-28T22:18:11.932Z,7.10
2023-03-28T22:20:40.562Z,7.10
2023-03-28T22:23:07.748Z,7.30
2023-03-28T22:25:38.405Z,7.30
2023-03-28T22:28:06.923Z,7.20
2023-03-28T22:30:34.458Z,7.30
2023-03-28T22:33:03.894Z,7.30
2023-03-28T22:35:31.299Z,7.30
2023-03-28T22:37:58.191Z,7.60
2023-03-28T22:40:24.912Z,7.80
2023-03-28T22:42:54.063Z,7.60
2023-03-28T22:45:21.748Z,7.40
2023-03-28T22:47:50.124Z,7.40
2023-03-28T22:50:18.390Z,7.20
2023-03-28T22:52:46.257Z,7.20
2023-03-28T22:55:13.389Z,7.40
2023-03-28T22:57:41.997Z,7.30
2023-03-28T23:00:09.746Z,7.10
2023-03-28T23:02:37.576Z,6.80
2023-03-28T23:05:05.705Z,6.60
2023-03-28T23:07:36.117Z,6.40
2023-03-28T23:10:08.329Z,6.20
2023-03-28T23:12:35.836Z,6.20
2023-03-28T23:15:02.769Z,5.90
2023-03-28T23:17:29.995Z,5.90
2023-03-28T23:19:56.805Z,6.00
2023-03-28T23:22:23.765Z,6.00
2023-03-28T23:24:50.736Z,6.00
2023-03-28T23:27:17.918Z,5.90
2023-03-28T23:29:44.667Z,6.00
2023-03-28T23:32:11.533Z,5.90
2023-03-28T23:34:38.905Z,5.90
2023-03-28T23:37:05.749Z,6.00
2023-03-28T23:39:32.561Z,6.00
2023-03-28T23:41:59.354Z,6.00
2023-03-28T23:44:26.080Z,6.10
2023-03-28T23:46:53.086Z,6.10
2023-03-28T23:49:19.944Z,6.30
2023-03-28T23:51:46.855Z,6.60
2023-03-28T23:54:15.726Z,6.70
2023-03-28T23:56:42.474Z,6.50
2023-03-28T23:59:09.306Z,6.30
